Time;durP1;ratioP1;P1;durP2;ratioP2;P2;SDS_P1;SDS_P2;PMS_P1;PMS_P2;Temp;Humidity;BMP_temperature;BMP_pressure;BME280_temperature;BME280_humidity;BME280_pressure;Samples;Min_cycle;Max_cycle;Signal;HPM_P1;HPM_P2
2024/03/24 00:03:07;;;;;;;22.88;6.95;;;8.00;99.90;;;;;;10430424;28;20084;-53
2024/03/24 00:08:10;;;;;;;24.92;5.68;;;7.80;99.90;;;;;;10430934;28;20171;-54
2024/03/24 00:13:12;;;;;;;;;;;8.20;99.90;;;;;;10436049;28;20120;-52
2024/03/24 00:18:14;;;;;;;18.90;3.97;;;7.80;99.90;;;;;;10434523;28;19932;-50
2024/03/24 00:23:17;;;;;;;13.38;3.67;;;7.50;99.90;;;;;;10434197;28;20037;-51
2024/03/24 00:28:20;;;;;;;30.77;6.25;;;7.80;99.90;;;;;;10437384;28;20049;-50
2024/03/24 00:33:22;;;;;;;32.65;5.00;;;7.90;99.90;;;;;;10429714;28;20073;-52
2024/03/24 00:38:26;;;;;;;23.40;5.70;;;8.00;99.90;;;;;;10436084;28;20056;-50
2024/03/24 00:43:29;;;;;;;23.23;6.43;;;8.10;99.90;;;;;;10433743;28;20101;-50
2024/03/24 00:48:31;;;;;;;34.78;6.78;;;7.80;99.90;;;;;;10426490;28;20102;-50
2024/03/24 00:53:34;;;;;;;25.25;6.15;;;7.80;99.90;;;;;;10433143;28;20083;-53
2024/03/24 00:58:37;;;;;;;3.40;0.82;;;7.60;99.90;;;;;;10431395;28;20053;-53
2024/03/24 01:03:39;;;;;;;0.20;0.20;;;7.60;99.90;;;;;;10427920;28;20098;-55
2024/03/24 01:08:43;;;;;;;3.55;3.22;;;7.40;99.90;;;;;;10427100;28;20360;-52
2024/03/24 01:13:45;;;;;;;0.10;0.10;;;7.70;99.90;;;;;;10428608;28;20118;-52
2024/03/24 01:18:50;;;;;;;5.95;3.30;;;7.50;99.90;;;;;;10433105;28;20159;-53
2024/03/24 01:23:53;;;;;;;1.38;1.30;;;7.20;99.90;;;;;;10429705;28;20059;-50
2024/03/24 01:28:55;;;;;;;;;;;7.50;99.90;;;;;;10432189;28;20064;-55
2024/03/24 01:33:57;;;;;;;35.28;7.00;;;7.50;99.90;;;;;;10431644;28;19924;-51
2024/03/24 01:39:01;;;;;;;0.10;0.10;;;7.60;99.90;;;;;;10431884;28;20131;-51
2024/03/24 01:44:03;;;;;;;33.90;5.82;;;7.50;99.90;;;;;;10428261;28;20044;-51
2024/03/24 01:49:05;;;;;;;32.25;5.53;;;7.60;99.90;;;;;;10426928;28;20045;-50
2024/03/24 01:54:11;;;;;;;26.63;5.95;;;7.80;99.90;;;;;;10431615;28;20053;-53
2024/03/24 01:59:13;;;;;;;25.20;4.75;;;7.60;99.90;;;;;;10434686;28;20052;-51
2024/03/24 02:04:15;;;;;;;32.00;7.22;;;7.90;99.90;;;;;;10431139;28;20994;-51
2024/03/24 02:09:18;;;;;;;21.92;5.85;;;7.90;99.90;;;;;;10433834;28;20064;-50
2024/03/24 02:14:21;;;;;;;32.50;7.10;;;7.80;99.90;;;;;;10438555;28;20059;-54
2024/03/24 02:19:23;;;;;;;32.38;6.78;;;7.80;99.90;;;;;;10434833;28;20429;-51
2024/03/24 02:24:27;;;;;;;23.00;4.50;;;8.00;99.90;;;;;;10438323;28;20052;-51
2024/03/24 02:29:29;;;;;;;28.73;6.50;;;7.90;99.90;;;;;;10437836;28;20114;-52
2024/03/24 02:34:32;;;;;;;17.85;4.07;;;7.90;99.90;;;;;;10437012;28;20115;-52
2024/03/24 02:39:36;;;;;;;;;;;8.00;99.90;;;;;;10441797;28;20062;-49
2024/03/24 02:44:38;;;;;;;;;;;8.30;99.90;;;;;;10435541;28;19939;-53
2024/03/24 02:49:40;;;;;;;25.83;4.55;;;8.40;99.90;;;;;;10434231;28;20290;-51
2024/03/24 02:54:44;;;;;;;28.38;5.93;;;7.80;99.90;;;;;;10434538;28;20219;-52
2024/03/24 02:59:46;;;;;;;15.57;3.10;;;8.10;99.90;;;;;;10435639;28;20057;-52
2024/03/24 03:04:48;;;;;;;10.07;3.10;;;8.30;99.90;;;;;;10433022;28;20060;-52
2024/03/24 03:09:52;;;;;;;25.93;5.90;;;8.70;99.90;;;;;;10437893;28;20044;-49
2024/03/24 03:14:54;;;;;;;19.80;3.60;;;8.20;99.90;;;;;;10435036;28;20079;-49
2024/03/24 03:19:56;;;;;;;19.20;5.23;;;8.40;99.90;;;;;;10437835;28;20049;-54
2024/03/24 03:24:59;;;;;;;20.98;5.63;;;8.40;99.90;;;;;;10430276;28;20059;-51
2024/03/24 03:30:02;;;;;;;24.65;4.90;;;8.50;99.90;;;;;;10436038;28;20060;-50
2024/03/24 03:35:05;;;;;;;12.02;3.35;;;8.10;99.90;;;;;;10434809;28;20848;-55
2024/03/24 03:40:10;;;;;;;16.15;3.42;;;8.50;99.90;;;;;;10437592;28;20053;-53
2024/03/24 03:45:15;;;;;;;29.20;4.68;;;8.10;99.90;;;;;;10431987;28;20052;-51
2024/03/24 03:50:20;;;;;;;19.65;3.58;;;8.60;99.90;;;;;;10432818;28;20044;-52
2024/03/24 03:55:24;;;;;;;27.60;5.90;;;8.60;99.90;;;;;;10432328;28;20049;-51
2024/03/24 04:00:27;;;;;;;13.20;3.38;;;8.20;99.90;;;;;;10431016;28;20291;-51
2024/03/24 04:05:30;;;;;;;15.00;5.07;;;8.20;99.90;;;;;;10431574;28;20729;-51
2024/03/24 04:10:33;;;;;;;10.97;4.10;;;8.90;99.90;;;;;;10430477;28;20051;-50
2024/03/24 04:15:40;;;;;;;17.60;4.22;;;8.40;99.90;;;;;;10428434;28;20426;-52
2024/03/24 04:20:42;;;;;;;23.27;4.32;;;7.90;99.90;;;;;;10434407;28;20057;-49
2024/03/24 04:25:49;;;;;;;17.20;3.65;;;7.90;99.90;;;;;;10431228;28;20451;-53
2024/03/24 04:30:51;;;;;;;19.23;4.78;;;8.30;99.90;;;;;;10438608;28;20041;-51
2024/03/24 04:35:53;;;;;;;27.33;5.47;;;8.00;99.90;;;;;;10436691;28;20524;-51
2024/03/24 04:40:57;;;;;;;19.63;4.60;;;8.00;99.90;;;;;;10428881;28;20088;-51
2024/03/24 04:45:59;;;;;;;11.05;3.08;;;7.90;99.90;;;;;;10424257;28;20910;-51
2024/03/24 04:51:02;;;;;;;7.80;3.03;;;8.00;99.90;;;;;;10429080;28;20053;-50
2024/03/24 04:56:05;;;;;;;17.53;4.07;;;8.00;99.90;;;;;;10434053;28;20051;-49
2024/03/24 05:01:07;;;;;;;17.50;4.03;;;8.20;99.90;;;;;;10428944;28;20053;-51
2024/03/24 05:06:09;;;;;;;23.42;4.90;;;8.00;99.90;;;;;;10439262;28;20222;-51
2024/03/24 05:11:13;;;;;;;12.75;2.60;;;8.10;99.90;;;;;;10427860;28;20448;-50
2024/03/24 05:16:17;;;;;;;13.50;2.75;;;8.00;99.90;;;;;;10431657;28;20048;-53
2024/03/24 05:21:19;;;;;;;10.88;2.58;;;8.10;99.90;;;;;;10430579;28;22425;-50
2024/03/24 05:26:22;;;;;;;28.07;4.53;;;8.20;99.90;;;;;;10427945;28;20056;-50
2024/03/24 05:31:24;;;;;;;24.63;4.95;;;8.30;99.90;;;;;;10427712;28;20045;-54
2024/03/24 05:36:27;;;;;;;12.68;3.53;;;8.10;99.90;;;;;;10429056;28;20084;-55
2024/03/24 05:41:31;;;;;;;15.70;3.35;;;8.30;99.90;;;;;;10428642;28;20052;-52
2024/03/24 05:46:33;;;;;;;18.92;3.58;;;8.30;99.90;;;;;;10426305;28;22517;-51
2024/03/24 05:51:35;;;;;;;18.83;4.73;;;8.40;99.90;;;;;;10436321;28;20464;-51
2024/03/24 05:56:39;;;;;;;5.65;2.03;;;8.10;99.90;;;;;;10424942;28;20052;-53
2024/03/24 06:01:41;;;;;;;13.55;2.70;;;8.50;99.90;;;;;;10420323;28;20102;-49
2024/03/24 06:06:43;;;;;;;19.27;5.10;;;8.20;99.90;;;;;;10429849;28;20187;-50
2024/03/24 06:11:46;;;;;;;22.88;3.28;;;8.50;99.90;;;;;;10420261;28;20072;-49
2024/03/24 06:16:48;;;;;;;23.65;5.55;;;8.50;99.90;;;;;;10424164;28;20177;-49
2024/03/24 06:21:50;;;;;;;16.50;3.45;;;8.30;99.90;;;;;;10423327;28;20071;-54
2024/03/24 06:26:54;;;;;;;23.35;5.85;;;7.90;99.90;;;;;;10432038;28;20524;-49
2024/03/24 06:31:57;;;;;;;10.98;2.78;;;8.20;99.90;;;;;;10418898;28;20504;-51
2024/03/24 06:37:00;;;;;;;18.63;3.50;;;8.20;99.90;;;;;;10428269;28;20072;-52
2024/03/24 06:42:04;;;;;;;12.67;3.53;;;8.70;99.90;;;;;;10424057;28;20053;-53
2024/03/24 06:47:07;;;;;;;14.63;2.92;;;8.70;99.90;;;;;;10429824;28;21240;-52
2024/03/24 06:52:09;;;;;;;11.75;3.40;;;8.40;99.90;;;;;;10434370;28;20080;-51
2024/03/24 06:57:12;;;;;;;13.48;2.63;;;8.60;99.90;;;;;;10425139;28;20056;-52
2024/03/24 07:02:15;;;;;;;20.05;3.92;;;8.50;99.90;;;;;;10431522;28;20114;-53
2024/03/24 07:07:17;;;;;;;20.05;4.13;;;8.90;99.90;;;;;;10429056;28;20057;-54
2024/03/24 07:12:21;;;;;;;16.57;3.27;;;8.90;99.90;;;;;;10428207;28;20049;-53
2024/03/24 07:17:23;;;;;;;25.13;6.18;;;8.50;99.90;;;;;;10428215;28;20040;-54
2024/03/24 07:22:26;;;;;;;16.38;4.20;;;8.40;99.90;;;;;;10428126;28;20049;-57
2024/03/24 07:27:29;;;;;;;14.47;2.80;;;8.30;99.90;;;;;;10427019;28;20079;-52
2024/03/24 07:32:31;;;;;;;16.48;3.47;;;9.10;99.90;;;;;;10423552;28;20068;-54
2024/03/24 07:37:33;;;;;;;16.55;2.53;;;8.50;99.90;;;;;;10425310;28;20119;-54
2024/03/24 07:42:38;;;;;;;20.20;5.40;;;8.80;99.90;;;;;;10425118;28;20045;-52
2024/03/24 07:47:40;;;;;;;15.13;3.78;;;8.50;99.90;;;;;;10418325;28;20930;-54
2024/03/24 07:52:42;;;;;;;21.00;3.33;;;8.70;99.90;;;;;;10418878;28;20083;-53
2024/03/24 07:57:45;;;;;;;10.57;2.70;;;8.50;99.90;;;;;;10421423;28;20080;-51
2024/03/24 08:02:47;;;;;;;17.13;2.47;;;9.00;99.90;;;;;;10423515;28;20142;-52
2024/03/24 08:07:49;;;;;;;14.52;3.58;;;9.00;99.90;;;;;;10419609;28;20056;-51
2024/03/24 08:12:53;;;;;;;6.10;1.25;;;8.80;99.90;;;;;;10424528;28;23242;-53
2024/03/24 08:17:54;;;;;;;;;;;9.00;99.90;;;;;;10423581;28;20052;-52
2024/03/24 08:22:56;;;;;;;15.63;2.58;;;8.50;99.90;;;;;;10422470;28;20625;-55
2024/03/24 08:28:00;;;;;;;7.82;2.50;;;8.60;99.90;;;;;;10422505;28;20094;-54
2024/03/24 08:33:02;;;;;;;16.52;2.20;;;9.00;99.90;;;;;;10429793;28;20048;-54
2024/03/24 08:38:06;;;;;;;17.55;3.60;;;9.10;99.90;;;;;;10433761;28;20041;-52
2024/03/24 08:43:10;;;;;;;19.30;4.18;;;9.10;99.90;;;;;;10422927;28;22178;-52
2024/03/24 08:48:12;;;;;;;19.42;3.75;;;9.10;99.90;;;;;;10417846;28;20049;-50
2024/03/24 08:53:14;;;;;;;14.40;3.13;;;9.00;99.90;;;;;;10420366;28;20040;-53
2024/03/24 08:58:18;;;;;;;23.80;4.50;;;9.60;99.90;;;;;;10419076;28;20060;-50
2024/03/24 09:03:20;;;;;;;26.02;4.18;;;8.70;99.90;;;;;;10426337;28;20048;-51
2024/03/24 09:08:22;;;;;;;34.20;4.93;;;8.70;99.90;;;;;;10419265;28;20140;-52
2024/03/24 09:13:26;;;;;;;12.63;2.70;;;8.60;99.90;;;;;;10412985;28;20167;-53
2024/03/24 09:18:28;;;;;;;0.75;0.75;;;7.70;99.90;;;;;;10425746;28;20114;-53
2024/03/24 09:23:30;;;;;;;13.68;1.65;;;7.40;99.90;;;;;;10422941;28;20048;-52
2024/03/24 09:28:33;;;;;;;0.10;0.10;;;7.50;99.90;;;;;;10433679;28;20047;-54
2024/03/24 09:33:35;;;;;;;0.10;0.10;;;7.80;99.90;;;;;;10423625;28;20468;-53
2024/03/24 09:38:38;;;;;;;0.17;0.17;;;7.40;99.90;;;;;;10427330;28;20080;-57
2024/03/24 09:43:41;;;;;;;6.90;2.50;;;7.50;99.90;;;;;;10427058;28;20057;-56
2024/03/24 09:48:44;;;;;;;0.17;0.17;;;8.20;99.90;;;;;;10423376;28;20505;-51
2024/03/24 09:53:46;;;;;;;0.20;0.20;;;8.00;99.90;;;;;;10427557;28;20044;-53
2024/03/24 09:58:51;;;;;;;0.10;0.10;;;9.00;99.90;;;;;;10427834;28;20489;-51
2024/03/24 10:03:53;;;;;;;0.10;0.10;;;7.80;99.90;;;;;;10426884;28;20478;-55
2024/03/24 10:08:55;;;;;;;1.08;1.08;;;9.60;99.90;;;;;;10422217;28;20988;-51
2024/03/24 10:14:00;;;;;;;23.53;3.93;;;10.30;99.90;;;;;;10409600;28;20064;-50
2024/03/24 10:19:11;;;;;;;26.70;5.10;;;8.90;99.90;;;;;;10429865;28;20071;-53
2024/03/24 10:24:13;;;;;;;20.92;3.78;;;8.70;99.90;;;;;;10422987;28;20050;-52
2024/03/24 10:29:16;;;;;;;31.20;5.45;;;8.40;99.90;;;;;;10431503;28;20099;-54
2024/03/24 10:34:18;;;;;;;30.75;4.97;;;8.70;99.90;;;;;;10429143;28;20055;-50
2024/03/24 10:39:21;;;;;;;22.33;3.33;;;8.50;99.90;;;;;;10437137;28;20504;-54
2024/03/24 10:44:27;;;;;;;32.67;6.15;;;8.80;99.90;;;;;;10433599;28;20076;-54
2024/03/24 10:49:30;;;;;;;21.95;4.25;;;8.70;99.90;;;;;;10438104;28;20147;-54
2024/03/24 10:54:33;;;;;;;26.98;4.47;;;9.20;99.90;;;;;;10427955;28;20044;-51
2024/03/24 10:59:36;;;;;;;;;;;9.00;99.90;;;;;;10425305;28;20053;-55
2024/03/24 11:04:40;;;;;;;10.25;3.03;;;9.50;99.90;;;;;;10433013;28;19974;-54
2024/03/24 11:09:42;;;;;;;17.45;2.53;;;9.30;99.90;;;;;;10428550;28;21101;-52
2024/03/24 11:14:46;;;;;;;23.93;3.53;;;9.20;99.90;;;;;;10430164;28;20094;-51
2024/03/24 11:19:50;;;;;;;15.00;2.20;;;9.30;99.90;;;;;;10427921;28;20166;-54
2024/03/24 11:24:55;;;;;;;18.35;2.22;;;9.30;99.90;;;;;;10432156;28;20068;-54
2024/03/24 11:30:00;;;;;;;31.45;3.97;;;9.50;99.90;;;;;;10429802;28;20056;-52
2024/03/24 11:35:03;;;;;;;22.95;3.35;;;8.70;99.90;;;;;;10433622;28;20868;-55
2024/03/24 11:40:11;;;;;;;22.23;3.63;;;9.00;99.90;;;;;;10428751;28;20045;-56
2024/03/24 11:45:26;;;;;;;18.52;3.38;;;8.80;99.90;;;;;;10427815;28;20049;-50
2024/03/24 11:50:29;;;;;;;7.10;1.73;;;9.30;99.90;;;;;;10423952;28;20060;-53
2024/03/24 11:55:32;;;;;;;26.20;3.80;;;9.30;99.90;;;;;;10426134;28;20227;-50
2024/03/24 12:00:35;;;;;;;;;;;9.10;99.90;;;;;;10426547;28;20052;-55
2024/03/24 12:05:37;;;;;;;15.63;2.78;;;8.90;99.90;;;;;;10436620;28;20081;-51
2024/03/24 12:10:40;;;;;;;12.20;2.40;;;9.30;99.90;;;;;;10430242;28;20061;-52
2024/03/24 12:15:45;;;;;;;13.18;2.38;;;9.30;99.90;;;;;;10425765;28;20063;-53
2024/03/24 12:20:49;;;;;;;15.93;2.63;;;9.20;99.90;;;;;;10433115;28;20057;-55
2024/03/24 12:25:51;;;;;;;18.35;3.78;;;8.70;99.90;;;;;;10433086;28;20089;-54
2024/03/24 12:30:57;;;;;;;16.60;2.83;;;8.70;99.90;;;;;;10435590;28;20056;-53
2024/03/24 12:35:59;;;;;;;17.20;2.60;;;8.80;99.90;;;;;;10428822;28;20048;-55
2024/03/24 12:41:01;;;;;;;16.55;2.75;;;8.50;99.90;;;;;;10436189;28;20049;-54
2024/03/24 12:46:04;;;;;;;20.23;3.80;;;8.70;99.90;;;;;;10431710;28;20369;-55
2024/03/24 12:51:08;;;;;;;20.17;2.97;;;8.80;99.90;;;;;;10430519;28;20467;-53
2024/03/24 12:56:13;;;;;;;25.63;4.40;;;8.90;99.90;;;;;;10430332;28;20079;-55
2024/03/24 13:01:21;;;;;;;24.50;4.53;;;9.00;99.90;;;;;;10434603;28;20048;-53
2024/03/24 13:06:26;;;;;;;22.67;4.13;;;9.40;99.90;;;;;;10434848;28;20670;-54
2024/03/24 13:11:28;;;;;;;19.08;3.88;;;9.10;99.90;;;;;;10433324;28;20077;-52
2024/03/24 13:16:39;;;;;;;17.00;3.10;;;9.10;99.90;;;;;;10433914;28;20045;-53
2024/03/24 13:21:44;;;;;;;21.52;2.92;;;9.10;99.90;;;;;;10423780;28;20056;-53
2024/03/24 13:26:49;;;;;;;21.23;4.50;;;9.60;99.90;;;;;;10433624;28;20778;-54
2024/03/24 13:31:53;;;;;;;22.05;4.07;;;9.20;99.90;;;;;;10427542;28;20096;-53
2024/03/24 13:37:03;;;;;;;19.75;2.55;;;9.40;99.90;;;;;;10432338;28;20056;-52
2024/03/24 13:42:16;;;;;;;16.42;2.83;;;9.20;99.90;;;;;;10435440;28;20063;-56
2024/03/24 13:47:26;;;;;;;15.83;3.37;;;8.90;99.90;;;;;;10424927;28;20809;-55
2024/03/24 13:52:30;;;;;;;17.17;3.10;;;8.70;99.90;;;;;;10429644;28;20049;-54
2024/03/24 13:57:33;;;;;;;26.73;4.88;;;9.00;99.90;;;;;;10429296;28;20049;-54
2024/03/24 14:02:36;;;;;;;10.23;2.42;;;8.70;99.90;;;;;;10426835;28;20049;-55
2024/03/24 14:07:38;;;;;;;15.98;3.50;;;8.80;99.90;;;;;;10426428;28;20052;-52
2024/03/24 14:12:52;;;;;;;26.27;2.47;;;8.90;99.90;;;;;;10429005;28;20081;-53
2024/03/24 14:18:06;;;;;;;18.95;4.95;;;9.00;99.90;;;;;;10429178;28;20068;-55
2024/03/24 14:23:21;;;;;;;16.90;2.40;;;8.90;99.90;;;;;;10429287;28;20060;-55
2024/03/24 14:28:24;;;;;;;17.75;2.67;;;8.80;99.90;;;;;;10434089;28;20057;-53
2024/03/24 14:33:27;;;;;;;22.03;3.70;;;9.00;99.90;;;;;;10424186;28;20511;-55
2024/03/24 14:38:50;;;;;;;17.95;2.90;;;9.00;99.90;;;;;;10412408;28;20060;-55
2024/03/24 14:44:07;;;;;;;21.37;2.83;;;8.90;99.90;;;;;;10428918;28;20092;-56
2024/03/24 14:49:11;;;;;;;2.75;1.60;;;8.20;99.90;;;;;;10426516;28;20455;-52
2024/03/24 14:54:14;;;;;;;0.10;0.10;;;8.70;99.90;;;;;;10424807;28;20120;-56
2024/03/24 14:59:17;;;;;;;2.95;0.85;;;8.60;99.90;;;;;;10422241;28;20416;-55
2024/03/24 15:04:20;;;;;;;0.75;0.75;;;8.40;99.90;;;;;;10434787;28;20071;-52
2024/03/24 15:09:24;;;;;;;0.10;0.10;;;8.20;99.90;;;;;;10435939;28;20061;-55
2024/03/24 15:14:28;;;;;;;0.20;0.20;;;8.80;99.90;;;;;;10434554;28;20045;-54
2024/03/24 15:19:33;;;;;;;17.85;4.20;;;8.90;99.90;;;;;;10434311;28;20053;-55
2024/03/24 15:24:35;;;;;;;17.95;3.17;;;8.70;99.90;;;;;;10423998;28;20055;-53
2024/03/24 15:29:38;;;;;;;29.55;5.10;;;10.40;99.90;;;;;;10429901;28;20551;-55
2024/03/24 15:34:41;;;;;;;;;;;9.90;99.90;;;;;;10428746;28;20056;-56
2024/03/24 15:39:43;;;;;;;21.85;3.63;;;10.00;99.90;;;;;;10428960;28;19925;-54
2024/03/24 15:44:46;;;;;;;24.27;3.83;;;9.90;99.90;;;;;;10435701;28;20083;-56
2024/03/24 15:49:50;;;;;;;25.90;5.15;;;9.80;99.90;;;;;;10425017;28;20057;-53
2024/03/24 15:54:53;;;;;;;33.15;4.32;;;10.10;99.90;;;;;;10418721;28;20576;-52
2024/03/24 16:00:01;;;;;;;23.17;4.50;;;10.30;99.90;;;;;;10424510;28;20072;-54
2024/03/24 16:05:06;;;;;;;29.08;5.25;;;10.10;99.90;;;;;;10428281;28;20303;-54
2024/03/24 16:10:42;;;;;;;45.45;9.82;;;10.10;99.90;;;;;;10427398;28;23165;-54
2024/03/24 16:15:44;;;;;;;18.75;3.67;;;9.60;99.90;;;;;;10422348;28;20509;-52
2024/03/24 16:21:00;;;;;;;25.60;4.10;;;9.90;99.90;;;;;;10424294;28;20083;-51
2024/03/24 16:26:06;;;;;;;26.65;4.28;;;9.90;99.90;;;;;;10426868;28;20041;-54
2024/03/24 16:31:09;;;;;;;24.75;4.72;;;9.70;99.90;;;;;;10421691;28;20053;-53
2024/03/24 16:36:13;;;;;;;;;;;9.50;99.90;;;;;;10428025;28;20044;-52
2024/03/24 16:41:14;;;;;;;12.38;2.35;;;9.10;99.90;;;;;;10427198;28;19920;-53
2024/03/24 16:46:16;;;;;;;19.98;4.15;;;9.10;99.90;;;;;;10424726;28;20143;-54
2024/03/24 16:51:21;;;;;;;14.40;2.78;;;9.40;99.90;;;;;;10425209;28;20053;-51
2024/03/24 16:56:23;;;;;;;16.40;3.55;;;9.90;99.90;;;;;;10420160;28;20053;-54
2024/03/24 17:01:27;;;;;;;29.02;3.72;;;8.90;99.90;;;;;;10423361;28;20968;-54
2024/03/24 17:06:31;;;;;;;29.88;4.32;;;8.90;99.90;;;;;;10418848;28;20872;-56
2024/03/24 17:11:33;;;;;;;17.00;3.60;;;8.60;99.90;;;;;;10426241;28;20087;-53
2024/03/24 17:16:36;;;;;;;23.10;2.63;;;8.90;99.90;;;;;;10424920;28;20144;-52
2024/03/24 17:21:40;;;;;;;20.27;3.35;;;8.70;99.90;;;;;;10424183;28;20053;-54
2024/03/24 17:26:42;;;;;;;15.45;2.17;;;9.60;99.90;;;;;;10421458;28;20047;-55
2024/03/24 17:31:44;;;;;;;15.88;2.30;;;9.40;99.90;;;;;;10424464;28;20498;-53
2024/03/24 17:36:48;;;;;;;4.40;1.35;;;9.50;99.90;;;;;;10423774;28;20803;-55
2024/03/24 17:41:51;;;;;;;8.45;2.00;;;9.60;99.90;;;;;;10428411;28;20049;-52
2024/03/24 17:46:53;;;;;;;12.35;1.45;;;9.00;99.90;;;;;;10424906;28;20052;-52
2024/03/24 17:51:56;;;;;;;22.27;3.25;;;9.20;99.90;;;;;;10418824;28;20053;-54
2024/03/24 17:56:59;;;;;;;14.40;1.98;;;9.10;99.90;;;;;;10416919;28;20851;-55
2024/03/24 18:02:01;;;;;;;17.97;3.90;;;9.10;99.90;;;;;;10416063;28;20625;-54
2024/03/24 18:12:25;;;;;;;6.72;4.05;;;8.40;99.90;;;;;;10416532;28;20076;-53
2024/03/24 18:17:27;;;;;;;16.60;2.33;;;8.60;99.90;;;;;;10421467;28;20143;-55
2024/03/24 18:22:31;;;;;;;18.75;3.35;;;8.40;99.90;;;;;;10416778;28;20052;-54
2024/03/24 18:27:33;;;;;;;18.90;4.97;;;8.00;99.90;;;;;;10419077;28;20162;-54
2024/03/24 18:32:35;;;;;;;39.58;5.20;;;7.80;99.90;;;;;;10420622;28;20493;-56
2024/03/24 18:37:43;;;;;;;16.30;2.03;;;7.80;99.90;;;;;;10424076;28;20056;-54
2024/03/24 18:42:45;;;;;;;18.80;2.90;;;7.90;99.90;;;;;;10428775;28;20048;-55
2024/03/24 18:47:47;;;;;;;25.30;3.45;;;7.70;99.90;;;;;;10429826;28;20632;-54
2024/03/24 18:52:51;;;;;;;20.08;3.30;;;8.00;99.90;;;;;;10425054;28;20048;-55
2024/03/24 18:57:58;;;;;;;27.13;3.65;;;8.20;99.90;;;;;;10430923;28;20053;-56
2024/03/24 19:03:02;;;;;;;23.98;4.40;;;8.10;99.90;;;;;;10429806;28;20048;-53
2024/03/24 19:08:06;;;;;;;48.85;5.15;;;7.80;99.90;;;;;;10426861;28;20080;-54
2024/03/24 19:13:08;;;;;;;23.95;4.00;;;7.90;99.90;;;;;;10431186;28;20053;-53
2024/03/24 19:18:10;;;;;;;43.77;6.53;;;7.70;99.90;;;;;;10420758;28;20079;-50
2024/03/24 19:23:14;;;;;;;34.70;4.53;;;8.60;99.90;;;;;;10424354;28;20444;-55
2024/03/24 19:28:17;;;;;;;32.15;4.22;;;8.60;99.90;;;;;;10425402;28;20053;-52
2024/03/24 19:33:19;;;;;;;;;;;9.70;99.90;;;;;;10426991;28;21246;-51
2024/03/24 19:38:23;;;;;;;22.90;3.90;;;9.40;99.90;;;;;;10419919;28;19920;-52
2024/03/24 19:43:26;;;;;;;29.63;5.35;;;8.40;99.90;;;;;;10415258;28;20110;-53
2024/03/24 19:48:28;;;;;;;26.73;4.90;;;8.60;99.90;;;;;;10422927;28;20053;-55
2024/03/24 19:53:32;;;;;;;29.57;3.83;;;7.90;99.90;;;;;;10422332;28;20049;-55
2024/03/24 19:58:35;;;;;;;22.02;3.22;;;8.40;99.90;;;;;;10427486;28;20045;-56
2024/03/24 20:03:38;;;;;;;23.27;3.92;;;8.60;99.90;;;;;;10417049;28;20763;-52
2024/03/24 20:08:42;;;;;;;28.88;4.28;;;8.40;99.90;;;;;;10420273;28;20147;-53
2024/03/24 20:13:45;;;;;;;33.17;5.18;;;8.40;99.90;;;;;;10432747;28;20048;-53
2024/03/24 20:18:48;;;;;;;22.48;3.13;;;8.50;99.90;;;;;;10427810;28;20110;-55
2024/03/24 20:23:53;;;;;;;9.48;2.42;;;8.20;99.90;;;;;;10431331;28;20500;-52
2024/03/24 20:28:56;;;;;;;31.90;4.63;;;8.80;99.90;;;;;;10426168;28;20052;-54
2024/03/24 20:33:58;;;;;;;27.15;4.07;;;8.50;99.90;;;;;;10418252;28;20053;-54
2024/03/24 20:39:03;;;;;;;37.47;4.93;;;8.40;99.90;;;;;;10427060;28;20061;-51
2024/03/24 20:44:05;;;;;;;34.95;4.97;;;7.90;99.90;;;;;;10416418;28;20057;-55
2024/03/24 20:49:08;;;;;;;12.80;2.23;;;8.70;99.90;;;;;;10423572;28;20067;-54
2024/03/24 20:54:15;;;;;;;;;;;7.90;99.90;;;;;;10431070;28;20044;-54
2024/03/24 20:59:18;;;;;;;39.53;5.35;;;7.90;99.90;;;;;;10426924;28;20474;-53
2024/03/24 21:04:21;;;;;;;19.30;2.80;;;7.70;99.90;;;;;;10414753;28;20060;-53
2024/03/24 21:09:24;;;;;;;36.00;4.65;;;7.60;99.90;;;;;;10427676;28;20045;-54
2024/03/24 21:14:26;;;;;;;33.33;4.05;;;7.20;99.90;;;;;;10431806;28;20726;-52
2024/03/24 21:19:30;;;;;;;41.23;5.40;;;7.30;99.90;;;;;;10428089;28;20052;-55
2024/03/24 21:24:33;;;;;;;;;;;7.30;99.90;;;;;;10428792;28;20842;-55
2024/03/24 21:29:35;;;;;;;30.90;5.53;;;7.30;99.90;;;;;;10430249;28;19936;-49
2024/03/24 21:34:38;;;;;;;20.52;3.72;;;7.40;99.90;;;;;;10429715;28;20393;-53
2024/03/24 21:45:00;;;;;;;25.75;2.97;;;7.50;99.90;;;;;;10397824;28;20796;-53
2024/03/24 21:50:03;;;;;;;21.95;2.20;;;8.00;99.90;;;;;;10425949;28;20837;-55
2024/03/24 21:55:07;;;;;;;21.23;2.87;;;7.80;99.90;;;;;;10434356;28;20437;-52
2024/03/24 22:00:10;;;;;;;22.52;3.53;;;7.90;99.90;;;;;;10427446;28;20491;-55
2024/03/24 22:05:13;;;;;;;;;;;8.20;99.90;;;;;;10433202;28;20106;-51
2024/03/24 22:10:16;;;;;;;10.43;2.08;;;8.40;99.90;;;;;;10431410;28;19946;-52
2024/03/24 22:15:18;;;;;;;20.83;3.60;;;8.60;99.90;;;;;;10439273;28;20222;-53
2024/03/24 22:20:20;;;;;;;18.42;2.50;;;8.30;99.90;;;;;;10436032;28;20131;-54
2024/03/24 22:25:25;;;;;;;28.80;2.83;;;8.20;99.90;;;;;;10443378;28;20044;-51
2024/03/24 22:30:27;;;;;;;14.60;2.45;;;8.60;99.90;;;;;;10434262;28;20126;-51
2024/03/24 22:35:30;;;;;;;22.47;2.83;;;8.40;99.90;;;;;;10437308;28;20767;-54
2024/03/24 22:40:34;;;;;;;28.10;4.22;;;8.40;99.90;;;;;;10434703;28;20072;-51
2024/03/24 22:45:36;;;;;;;5.72;2.05;;;8.10;99.90;;;;;;10429830;28;20060;-52
2024/03/24 22:50:38;;;;;;;33.03;5.15;;;8.30;99.90;;;;;;10430378;28;20091;-53
2024/03/24 22:55:42;;;;;;;13.97;2.30;;;8.70;99.90;;;;;;10422159;28;20073;-52
2024/03/24 23:00:46;;;;;;;15.00;2.60;;;8.20;99.90;;;;;;10431306;28;20053;-53
2024/03/24 23:05:48;;;;;;;23.08;3.25;;;8.40;99.90;;;;;;10440254;28;20068;-52
2024/03/24 23:10:52;;;;;;;21.87;3.53;;;8.10;99.90;;;;;;10438820;28;20056;-50
2024/03/24 23:15:54;;;;;;;15.50;2.67;;;8.50;99.90;;;;;;10435060;28;20123;-51
2024/03/24 23:20:56;;;;;;;23.98;3.30;;;8.30;99.90;;;;;;10435009;28;20450;-53
2024/03/24 23:26:00;;;;;;;16.20;3.05;;;8.90;99.90;;;;;;10432901;28;20056;-53
2024/03/24 23:31:03;;;;;;;25.00;4.35;;;8.90;99.90;;;;;;10432618;28;20063;-55
2024/03/24 23:36:05;;;;;;;23.85;2.83;;;8.50;99.90;;;;;;10434567;28;20040;-52
2024/03/24 23:41:09;;;;;;;24.23;3.33;;;8.90;99.90;;;;;;10437302;28;20587;-50
2024/03/24 23:46:11;;;;;;;32.00;2.75;;;9.80;99.90;;;;;;10433696;28;20052;-52
2024/03/24 23:51:14;;;;;;;16.93;2.80;;;9.60;99.90;;;;;;10433712;28;20045;-52
2024/03/24 23:56:17;;;;;;;25.40;4.82;;;9.50;99.90;;;;;;10431398;28;20106;-55
